Time;durP1;ratioP1;P1;durP2;ratioP2;P2;SDS_P1;SDS_P2;PMS_P1;PMS_P2;Temp;Humidity;BMP_temperature;BMP_pressure;BME280_temperature;BME280_humidity;BME280_pressure;Samples;Min_cycle;Max_cycle;Signal;HPM_P1;HPM_P2
2021/06/02 00:00:42;;;;;;;5.93;5.00;;;10.30;84.90;;;;;;5034494;28;20643;-86
2021/06/02 00:03:12;;;;;;;8.17;5.30;;;10.30;84.60;;;;;;5016586;28;20177;-86
2021/06/02 00:05:39;;;;;;;8.13;5.30;;;10.40;84.30;;;;;;5016414;28;20199;-87
2021/06/02 00:08:09;;;;;;;7.57;4.80;;;10.40;84.20;;;;;;5015808;28;20193;-86
2021/06/02 00:10:34;;;;;;;7.33;4.10;;;10.40;84.00;;;;;;5033958;28;20168;-86
2021/06/02 00:13:01;;;;;;;5.50;3.93;;;10.40;83.70;;;;;;5016327;28;20188;-86
2021/06/02 00:15:27;;;;;;;4.50;4.00;;;10.40;83.40;;;;;;5015978;28;20186;-86
2021/06/02 00:17:53;;;;;;;5.70;3.93;;;10.40;83.50;;;;;;5033487;28;20181;-86
2021/06/02 00:20:19;;;;;;;5.77;3.70;;;10.30;83.80;;;;;;5033605;28;20203;-86
2021/06/02 00:22:46;;;;;;;4.87;3.30;;;10.30;83.70;;;;;;5033940;28;20176;-86
2021/06/02 00:25:13;;;;;;;6.87;3.40;;;10.30;83.30;;;;;;5015897;28;20172;-86
2021/06/02 00:27:40;;;;;;;6.60;3.40;;;10.30;83.20;;;;;;5016000;28;20173;-86
2021/06/02 00:30:09;;;;;;;6.40;3.80;;;10.30;83.60;;;;;;5033815;28;20180;-87
2021/06/02 00:32:36;;;;;;;5.33;3.20;;;10.20;83.80;;;;;;5015963;28;20233;-86
2021/06/02 00:35:03;;;;;;;4.57;3.20;;;10.00;84.00;;;;;;5016047;28;20176;-86
2021/06/02 00:37:29;;;;;;;5.27;3.60;;;10.00;84.20;;;;;;5015630;28;20208;-86
2021/06/02 00:39:57;;;;;;;4.87;3.70;;;9.90;84.00;;;;;;5015522;28;20293;-86
2021/06/02 00:42:25;;;;;;;7.53;3.20;;;9.80;84.60;;;;;;5015710;28;20172;-86
2021/06/02 00:44:51;;;;;;;7.53;3.60;;;9.70;84.70;;;;;;5033390;28;20176;-87
2021/06/02 00:47:18;;;;;;;3.60;3.20;;;9.70;84.90;;;;;;5015799;28;20200;-86
2021/06/02 00:49:45;;;;;;;4.53;3.10;;;9.70;85.10;;;;;;5033388;28;20192;-86
2021/06/02 00:52:10;;;;;;;6.47;3.50;;;9.80;84.90;;;;;;5033460;28;20183;-86
2021/06/02 00:54:38;;;;;;;4.23;3.27;;;9.90;84.80;;;;;;5015713;28;20188;-86
2021/06/02 00:57:17;;;;;;;9.07;3.83;;;9.90;84.80;;;;;;5033394;28;20232;-87
2021/06/02 01:00:05;;;;;;;6.00;3.80;;;10.00;84.70;;;;;;5033116;28;20295;-86
2021/06/02 01:02:34;;;;;;;4.47;3.30;;;10.00;84.70;;;;;;5015734;28;20177;-86
2021/06/02 01:05:00;;;;;;;9.27;3.33;;;9.90;84.70;;;;;;5033639;28;20247;-86
2021/06/02 01:07:26;;;;;;;6.57;3.30;;;9.90;84.80;;;;;;5015568;28;20220;-86
2021/06/02 01:09:56;;;;;;;4.33;3.47;;;9.80;84.80;;;;;;5033248;28;20200;-86
2021/06/02 01:12:23;;;;;;;3.80;3.40;;;9.60;85.30;;;;;;5015467;28;20607;-86
2021/06/02 01:14:50;;;;;;;5.13;3.17;;;9.50;85.80;;;;;;5033562;28;20529;-86
2021/06/02 01:17:21;;;;;;;4.07;3.67;;;9.50;86.00;;;;;;5033558;28;20181;-87
2021/06/02 01:19:48;;;;;;;5.97;3.83;;;9.40;86.10;;;;;;5032994;28;20220;-86
2021/06/02 01:22:14;;;;;;;3.90;3.50;;;9.40;86.30;;;;;;5015634;28;20176;-86
2021/06/02 01:24:41;;;;;;;4.60;3.70;;;9.40;86.40;;;;;;5033202;28;20271;-86
2021/06/02 01:27:09;;;;;;;6.07;3.80;;;9.40;86.50;;;;;;5033170;28;20173;-87
2021/06/02 01:29:40;;;;;;;7.60;3.53;;;9.40;86.60;;;;;;5015462;28;20203;-87
2021/06/02 01:32:25;;;;;;;8.27;3.50;;;9.40;86.70;;;;;;5015608;28;20177;-86
2021/06/02 01:35:15;;;;;;;7.33;3.63;;;9.40;86.80;;;;;;5015587;28;20189;-86
2021/06/02 01:38:08;;;;;;;6.80;3.77;;;9.40;86.80;;;;;;5032722;28;20192;-86
2021/06/02 01:40:58;;;;;;;5.97;4.10;;;9.40;86.90;;;;;;5015359;28;20220;-87
2021/06/02 01:43:43;;;;;;;10.63;4.20;;;9.40;87.00;;;;;;5033181;28;20257;-86
2021/06/02 01:46:09;;;;;;;10.13;4.70;;;9.50;87.20;;;;;;5033115;28;20195;-87
2021/06/02 01:48:56;;;;;;;5.30;3.43;;;9.50;87.30;;;;;;5015141;28;20262;-86
2021/06/02 01:51:30;;;;;;;6.20;3.73;;;9.60;87.00;;;;;;5032847;28;20195;-87
2021/06/02 01:54:19;;;;;;;4.63;3.30;;;9.60;86.90;;;;;;5018556;28;20207;-86
2021/06/02 01:56:45;;;;;;;3.57;3.27;;;9.50;87.00;;;;;;5036268;28;20220;-86
2021/06/02 01:59:28;;;;;;;3.20;2.90;;;9.50;87.20;;;;;;5036079;28;20216;-86
2021/06/02 02:02:34;;;;;;;5.63;3.00;;;9.50;87.20;;;;;;5018441;28;20234;-86
2021/06/02 02:05:14;;;;;;;6.57;2.90;;;9.50;87.20;;;;;;5014605;28;20245;-86
2021/06/02 02:08:08;;;;;;;5.23;3.10;;;9.60;87.00;;;;;;5018336;28;20704;-86
2021/06/02 02:10:46;;;;;;;4.97;3.00;;;9.60;87.00;;;;;;5036168;28;20240;-86
2021/06/02 02:13:36;;;;;;;5.73;3.10;;;9.60;87.10;;;;;;5018302;28;20643;-87
2021/06/02 02:16:18;;;;;;;5.00;3.00;;;9.60;87.20;;;;;;5036203;28;20172;-87
2021/06/02 02:19:16;;;;;;;4.83;2.90;;;9.50;87.20;;;;;;5017874;28;20224;-86
2021/06/02 02:21:43;;;;;;;7.40;3.33;;;9.50;87.30;;;;;;5018093;28;20173;-86
2021/06/02 02:24:12;;;;;;;6.20;3.00;;;9.40;87.30;;;;;;5035972;28;20179;-86
2021/06/02 02:26:40;;;;;;;4.23;3.23;;;9.40;87.10;;;;;;5018001;28;20263;-86
2021/06/02 02:29:27;;;;;;;4.70;2.87;;;9.40;87.10;;;;;;5035680;28;20283;-86
2021/06/02 02:32:11;;;;;;;5.27;3.10;;;9.30;87.20;;;;;;5017903;28;20214;-86
2021/06/02 02:34:56;;;;;;;5.43;2.73;;;9.20;87.20;;;;;;5017802;28;20625;-86
2021/06/02 02:38:05;;;;;;;5.17;2.87;;;9.10;87.40;;;;;;5017723;28;20659;-86
2021/06/02 02:40:50;;;;;;;8.03;3.10;;;9.10;87.60;;;;;;5035407;28;20279;-86
2021/06/02 02:43:24;;;;;;;6.37;2.70;;;9.00;87.70;;;;;;5017720;28;20227;-86
2021/06/02 02:46:07;;;;;;;5.53;3.03;;;9.00;87.80;;;;;;5017793;28;20259;-86
2021/06/02 02:48:50;;;;;;;3.37;2.60;;;8.90;87.90;;;;;;5017653;28;20201;-86
2021/06/02 02:51:52;;;;;;;4.47;2.67;;;8.80;88.00;;;;;;5017796;28;20173;-86
2021/06/02 02:54:24;;;;;;;4.00;2.47;;;8.90;88.10;;;;;;5017640;28;20175;-86
2021/06/02 02:57:06;;;;;;;3.37;2.87;;;9.10;88.00;;;;;;5017469;28;20311;-87
2021/06/02 03:00:06;;;;;;;3.87;2.43;;;9.10;87.60;;;;;;5034975;28;20228;-86
2021/06/02 03:02:52;;;;;;;3.70;2.50;;;9.20;87.70;;;;;;5003245;28;20279;-87
2021/06/02 03:05:27;;;;;;;3.67;2.70;;;9.30;87.40;;;;;;5034671;28;20199;-87
2021/06/02 03:08:18;;;;;;;4.83;2.77;;;9.30;87.20;;;;;;5017287;28;20195;-86
2021/06/02 03:10:54;;;;;;;3.93;2.90;;;9.40;87.20;;;;;;5034870;28;20234;-86
2021/06/02 03:13:31;;;;;;;5.00;3.57;;;9.40;87.10;;;;;;5017115;28;20610;-86
2021/06/02 03:16:00;;;;;;;7.23;2.40;;;9.40;87.00;;;;;;5017097;28;20165;-86
2021/06/02 03:18:32;;;;;;;4.60;2.13;;;9.30;87.00;;;;;;5016828;28;20212;-87
2021/06/02 03:21:29;;;;;;;5.03;2.37;;;9.40;86.90;;;;;;5016969;28;20187;-86
2021/06/02 03:24:09;;;;;;;5.80;3.20;;;9.40;86.90;;;;;;5016956;28;20173;-87
2021/06/02 03:26:40;;;;;;;6.33;2.83;;;9.30;86.90;;;;;;5017039;28;20164;-87
2021/06/02 03:29:14;;;;;;;6.67;2.43;;;9.20;87.00;;;;;;5016871;28;20204;-86
2021/06/02 03:31:59;;;;;;;2.80;2.40;;;9.20;87.20;;;;;;5016805;28;20188;-86
2021/06/02 03:34:42;;;;;;;3.43;2.57;;;9.10;87.60;;;;;;5034395;28;20176;-86
2021/06/02 03:37:39;;;;;;;5.53;2.33;;;9.00;87.70;;;;;;5017602;28;20267;-86
2021/06/02 03:40:47;;;;;;;5.23;2.40;;;9.00;87.80;;;;;;5006056;28;20204;-86
2021/06/02 03:43:31;;;;;;;5.53;2.43;;;9.00;88.10;;;;;;5030553;28;20189;-86
2021/06/02 03:46:19;;;;;;;4.63;2.33;;;9.10;88.20;;;;;;5017150;28;20183;-87
2021/06/02 03:48:58;;;;;;;3.47;2.30;;;9.20;88.10;;;;;;5016667;28;20212;-86
2021/06/02 03:51:29;;;;;;;4.40;2.53;;;9.30;88.10;;;;;;5017799;28;20181;-87
2021/06/02 03:54:16;;;;;;;6.50;2.50;;;9.30;87.90;;;;;;5016651;28;20267;-86
2021/06/02 03:57:10;;;;;;;8.57;3.13;;;9.40;87.90;;;;;;5034356;28;20227;-86
2021/06/02 03:59:45;;;;;;;5.77;2.67;;;9.50;87.70;;;;;;5016264;28;20204;-86
2021/06/02 04:02:34;;;;;;;6.53;2.70;;;9.60;87.50;;;;;;5016341;28;20218;-86
2021/06/02 04:05:15;;;;;;;5.60;3.00;;;9.60;87.50;;;;;;5016388;28;20256;-86
2021/06/02 04:08:00;;;;;;;5.17;2.93;;;9.70;87.40;;;;;;5016273;28;20179;-86
2021/06/02 04:10:43;;;;;;;10.90;3.27;;;9.70;87.60;;;;;;5033915;28;20239;-87
2021/06/02 04:13:30;;;;;;;4.57;3.17;;;9.80;87.80;;;;;;5016245;28;20175;-86
2021/06/02 04:16:08;;;;;;;5.17;3.00;;;10.00;87.30;;;;;;5033408;28;20180;-86
2021/06/02 04:18:36;;;;;;;5.90;3.33;;;10.30;87.00;;;;;;5015655;28;20282;-86
2021/06/02 04:21:03;;;;;;;6.37;3.23;;;10.40;86.90;;;;;;5034326;28;20180;-86
2021/06/02 04:23:30;;;;;;;5.33;3.10;;;10.60;86.00;;;;;;5033618;28;20173;-86
2021/06/02 04:25:59;;;;;;;7.37;3.30;;;10.70;85.70;;;;;;5033926;28;20227;-86
2021/06/02 04:28:25;;;;;;;8.07;2.80;;;10.80;85.50;;;;;;5033512;28;20736;-86
2021/06/02 04:30:58;;;;;;;3.20;2.67;;;11.00;85.10;;;;;;5033489;28;20201;-86
2021/06/02 04:33:28;;;;;;;6.73;3.90;;;11.00;85.30;;;;;;5033959;28;20539;-86
2021/06/02 04:35:57;;;;;;;5.00;2.90;;;11.10;85.10;;;;;;5033800;28;20211;-86
2021/06/02 04:38:24;;;;;;;4.20;3.07;;;11.20;84.00;;;;;;5015718;28;20208;-86
2021/06/02 04:40:51;;;;;;;6.17;3.27;;;11.30;83.90;;;;;;5033425;28;20646;-86
2021/06/02 04:43:19;;;;;;;5.80;2.97;;;11.30;84.00;;;;;;5033507;28;20173;-86
2021/06/02 04:45:57;;;;;;;4.60;2.60;;;11.50;83.50;;;;;;5015663;28;20272;-86
2021/06/02 04:48:23;;;;;;;8.07;3.40;;;11.60;83.90;;;;;;5033372;28;20278;-86
2021/06/02 04:51:29;;;;;;;4.23;3.20;;;11.70;83.40;;;;;;5015744;28;20172;-86
2021/06/02 04:54:19;;;;;;;8.23;4.87;;;11.80;82.30;;;;;;5015723;28;20171;-86
2021/06/02 04:57:30;;;;;;;4.70;2.70;;;11.90;82.60;;;;;;5015633;28;20175;-87
2021/06/02 05:00:20;;;;;;;3.67;2.90;;;12.00;81.60;;;;;;5033723;28;20207;-86
2021/06/02 05:03:01;;;;;;;7.20;3.20;;;12.20;82.20;;;;;;5015817;28;20623;-86
2021/06/02 05:05:45;;;;;;;6.17;3.10;;;12.20;81.40;;;;;;5034008;28;20251;-86
2021/06/02 05:08:42;;;;;;;5.87;3.00;;;12.20;81.40;;;;;;5015892;28;20200;-87
2021/06/02 05:11:18;;;;;;;7.03;3.00;;;12.10;82.10;;;;;;5033558;28;20184;-87
2021/06/02 05:14:11;;;;;;;7.63;2.93;;;12.00;82.20;;;;;;5015788;28;20188;-87
2021/06/02 05:17:11;;;;;;;5.13;2.80;;;12.00;82.20;;;;;;5033899;28;20185;-87
2021/06/02 05:20:23;;;;;;;5.67;3.33;;;11.90;82.30;;;;;;5015521;28;20220;-87
2021/06/02 05:23:26;;;;;;;6.07;3.23;;;11.90;82.80;;;;;;5015449;28;20181;-87
2021/06/02 05:26:29;;;;;;;6.90;3.50;;;11.90;82.80;;;;;;5033056;28;20548;-86
2021/06/02 05:29:32;;;;;;;9.87;3.43;;;11.90;83.00;;;;;;5019262;28;20295;-86
2021/06/02 05:32:10;;;;;;;5.53;3.60;;;11.90;82.90;;;;;;5036743;28;20183;-87
2021/06/02 05:34:57;;;;;;;4.60;3.10;;;12.00;83.20;;;;;;5019613;28;20168;-87
2021/06/02 05:37:53;;;;;;;6.77;3.57;;;12.10;83.00;;;;;;5019156;28;20177;-86
2021/06/02 05:40:45;;;;;;;4.73;3.27;;;12.30;82.80;;;;;;5036485;28;20201;-86
2021/06/02 05:43:29;;;;;;;5.20;3.40;;;12.40;82.00;;;;;;5036884;28;20277;-86
2021/06/02 05:46:32;;;;;;;10.93;3.70;;;12.70;82.50;;;;;;5019225;28;20271;-87
2021/06/02 05:49:29;;;;;;;6.43;3.83;;;12.90;81.90;;;;;;5018976;28;20204;-87
2021/06/02 05:52:20;;;;;;;10.10;3.67;;;13.00;81.50;;;;;;5019068;28;20230;-87
2021/06/02 05:55:10;;;;;;;9.97;3.60;;;13.00;80.80;;;;;;5036813;28;20176;-87
2021/06/02 05:57:46;;;;;;;5.50;3.37;;;13.10;80.40;;;;;;5019030;28;20181;-87
2021/06/02 06:00:23;;;;;;;6.63;3.60;;;13.10;81.00;;;;;;5037076;28;20192;-87
2021/06/02 06:02:52;;;;;;;8.33;3.67;;;13.30;81.30;;;;;;5019613;28;20525;-87
2021/06/02 06:05:32;;;;;;;9.53;4.30;;;13.50;79.40;;;;;;5019241;28;20180;-87
2021/06/02 06:08:22;;;;;;;7.57;3.00;;;13.50;80.20;;;;;;5019238;28;20603;-87
2021/06/02 06:11:09;;;;;;;10.83;3.93;;;13.50;79.20;;;;;;5018621;28;20252;-86
2021/06/02 06:14:01;;;;;;;9.60;4.07;;;13.50;79.60;;;;;;5036040;28;20165;-86
2021/06/02 06:16:48;;;;;;;9.17;3.57;;;13.30;79.40;;;;;;5018157;28;20169;-86
2021/06/02 06:19:50;;;;;;;7.40;4.10;;;13.40;79.20;;;;;;5017713;28;20230;-86
2021/06/02 06:22:34;;;;;;;6.00;3.47;;;13.60;78.80;;;;;;5017958;28;20208;-86
2021/06/02 06:25:05;;;;;;;7.27;3.70;;;13.60;78.80;;;;;;5017882;28;20173;-86
2021/06/02 06:27:46;;;;;;;3.63;3.23;;;13.80;77.60;;;;;;5035619;28;20618;-86
2021/06/02 06:30:20;;;;;;;4.43;3.50;;;14.00;78.10;;;;;;5017910;28;20590;-87
2021/06/02 06:32:50;;;;;;;3.40;2.63;;;14.00;76.80;;;;;;5035620;28;20160;-86
2021/06/02 06:35:17;;;;;;;10.97;3.57;;;14.30;76.40;;;;;;5017834;28;20656;-86
2021/06/02 06:37:51;;;;;;;5.30;2.87;;;14.30;76.20;;;;;;5034947;28;20184;-86
2021/06/02 06:40:30;;;;;;;5.10;3.00;;;14.40;75.60;;;;;;5035303;28;20195;-86
2021/06/02 06:42:58;;;;;;;9.73;3.50;;;14.50;76.20;;;;;;5017488;28;20230;-86
2021/06/02 06:45:38;;;;;;;6.47;3.00;;;14.50;73.80;;;;;;5035366;28;20169;-86
2021/06/02 06:48:11;;;;;;;6.43;2.77;;;14.60;74.70;;;;;;5017604;28;20250;-86
2021/06/02 06:50:37;;;;;;;3.57;2.57;;;14.70;73.80;;;;;;5035502;28;20296;-86
2021/06/02 06:53:06;;;;;;;6.20;2.90;;;14.70;74.40;;;;;;5017410;28;20263;-87
2021/06/02 06:55:33;;;;;;;5.43;2.80;;;14.70;74.10;;;;;;5035281;28;20177;-87
2021/06/02 06:57:59;;;;;;;7.03;2.07;;;14.60;72.60;;;;;;5017286;28;20609;-86
2021/06/02 07:00:25;;;;;;;5.20;2.40;;;14.50;73.40;;;;;;5017297;28;20295;-87
2021/06/02 07:02:51;;;;;;;5.20;2.40;;;14.60;72.60;;;;;;5034854;28;20181;-86
2021/06/02 07:05:19;;;;;;;4.17;2.50;;;14.70;73.00;;;;;;5017169;28;20177;-87
2021/06/02 07:07:45;;;;;;;7.87;2.63;;;14.80;72.70;;;;;;5034882;28;20566;-86
2021/06/02 07:10:13;;;;;;;6.17;2.10;;;14.60;72.20;;;;;;5034662;28;20177;-86
2021/06/02 07:12:41;;;;;;;4.03;2.70;;;14.50;72.20;;;;;;5034644;28;20219;-87
2021/06/02 07:15:09;;;;;;;8.17;3.23;;;14.60;72.90;;;;;;5034750;28;20172;-87
2021/06/02 07:17:39;;;;;;;2.90;2.23;;;14.60;74.00;;;;;;5034747;28;20175;-87
2021/06/02 07:20:08;;;;;;;11.07;2.50;;;14.90;72.10;;;;;;5016747;28;20204;-88
2021/06/02 07:22:41;;;;;;;8.10;2.47;;;14.70;71.70;;;;;;5034776;28;20165;-88
2021/06/02 07:25:08;;;;;;;6.60;2.63;;;14.60;73.00;;;;;;5016798;28;20172;-88
2021/06/02 07:27:35;;;;;;;4.03;2.27;;;14.60;74.10;;;;;;5034397;28;20176;-88
2021/06/02 07:30:02;;;;;;;6.93;2.47;;;14.60;72.80;;;;;;5034339;28;20290;-89
2021/06/02 07:32:27;;;;;;;3.50;2.10;;;14.60;72.60;;;;;;5016599;28;20181;-88
2021/06/02 07:34:53;;;;;;;3.53;2.27;;;14.80;72.60;;;;;;5034287;28;20172;-88
2021/06/02 07:37:19;;;;;;;5.87;2.30;;;15.00;72.20;;;;;;5016619;28;20258;-88
2021/06/02 07:39:44;;;;;;;4.20;2.27;;;15.20;70.30;;;;;;5016438;28;20262;-89
2021/06/02 07:42:10;;;;;;;6.50;2.67;;;15.20;70.50;;;;;;5034145;28;20180;-89
2021/06/02 07:44:36;;;;;;;6.00;2.60;;;15.30;70.40;;;;;;5016497;28;20177;-89
2021/06/02 07:47:02;;;;;;;5.43;2.43;;;15.40;70.50;;;;;;5016351;28;20187;-89
2021/06/02 07:49:27;;;;;;;3.37;2.00;;;15.60;70.60;;;;;;5033396;28;20220;-89
2021/06/02 07:51:54;;;;;;;5.60;2.43;;;15.60;69.00;;;;;;5033982;28;20215;-89
2021/06/02 07:54:20;;;;;;;4.47;2.50;;;15.60;68.40;;;;;;5016338;28;20200;-89
2021/06/02 07:56:46;;;;;;;3.53;1.90;;;15.70;68.90;;;;;;5033934;28;20172;-89
2021/06/02 07:59:12;;;;;;;4.17;2.60;;;15.50;68.70;;;;;;5016205;28;20216;-89
2021/06/02 08:01:37;;;;;;;3.50;2.37;;;15.30;70.40;;;;;;5016492;28;20580;-88
2021/06/02 08:04:03;;;;;;;4.90;2.60;;;15.10;70.10;;;;;;5033739;28;20165;-88
2021/06/02 08:06:29;;;;;;;5.80;2.40;;;15.30;72.50;;;;;;5016187;28;20568;-89
2021/06/02 08:08:55;;;;;;;8.33;2.27;;;15.40;71.40;;;;;;5016212;28;20790;-88
2021/06/02 08:11:20;;;;;;;7.57;2.63;;;15.50;69.00;;;;;;5033654;28;20176;-89
2021/06/02 08:13:46;;;;;;;2.60;1.90;;;15.90;68.40;;;;;;5016134;28;20615;-89
2021/06/02 08:16:12;;;;;;;4.33;2.10;;;16.30;69.70;;;;;;5015919;28;20588;-87
2021/06/02 08:18:37;;;;;;;4.40;2.00;;;16.60;66.30;;;;;;5033213;28;20281;-87
2021/06/02 08:21:03;;;;;;;5.13;2.40;;;16.60;66.70;;;;;;5033523;28;20576;-87
2021/06/02 08:23:28;;;;;;;2.95;2.10;;;16.70;66.10;;;;;;5015828;28;20177;-87
2021/06/02 08:25:54;;;;;;;4.57;1.98;;;16.70;64.40;;;;;;5033433;28;20183;-87
2021/06/02 08:28:20;;;;;;;3.20;1.80;;;16.50;66.50;;;;;;5033358;28;20200;-87
2021/06/02 08:30:46;;;;;;;3.72;1.95;;;16.30;63.70;;;;;;5015649;28;20191;-87
2021/06/02 08:33:12;;;;;;;2.47;1.70;;;16.20;65.00;;;;;;5033333;28;20598;-87
2021/06/02 08:35:38;;;;;;;5.93;2.17;;;16.30;67.70;;;;;;5033333;28;20177;-87
2021/06/02 08:38:03;;;;;;;3.97;2.00;;;16.40;66.10;;;;;;5033267;28;20192;-89
2021/06/02 08:40:29;;;;;;;5.00;1.70;;;16.50;66.20;;;;;;5033208;28;20219;-89
2021/06/02 08:42:55;;;;;;;2.33;1.83;;;16.70;64.20;;;;;;5015685;28;20180;-90
2021/06/02 08:45:21;;;;;;;5.23;1.80;;;16.70;64.20;;;;;;5033233;28;20176;-89
2021/06/02 08:47:48;;;;;;;2.65;1.80;;;16.90;63.10;;;;;;5015436;28;20275;-89
2021/06/02 08:50:17;;;;;;;4.28;1.90;;;17.20;63.30;;;;;;5015538;28;20177;-89
2021/06/02 08:52:43;;;;;;;5.05;1.85;;;17.10;61.40;;;;;;5033209;28;20230;-89
2021/06/02 08:55:12;;;;;;;3.40;1.90;;;17.10;61.00;;;;;;5015541;28;20183;-89
2021/06/02 08:57:42;;;;;;;5.22;2.13;;;17.10;62.40;;;;;;5015829;28;20600;-89
2021/06/02 09:00:14;;;;;;;6.35;2.05;;;16.90;63.10;;;;;;5033059;28;20259;-89
2021/06/02 09:02:42;;;;;;;4.72;2.63;;;17.00;63.80;;;;;;5019165;28;20164;-89
2021/06/02 09:05:08;;;;;;;4.85;2.20;;;17.40;63.00;;;;;;5037247;28;20173;-90
2021/06/02 09:07:38;;;;;;;3.78;2.10;;;17.60;64.10;;;;;;5019379;28;20179;-89
2021/06/02 09:10:05;;;;;;;3.08;1.90;;;17.60;61.30;;;;;;5019271;28;20259;-89
2021/06/02 09:12:37;;;;;;;7.93;1.95;;;17.70;64.50;;;;;;5019346;28;20180;-89
2021/06/02 09:15:09;;;;;;;2.38;1.85;;;17.90;62.00;;;;;;5037031;28;20214;-88
2021/06/02 09:17:53;;;;;;;1.98;1.70;;;18.00;60.80;;;;;;5019210;28;20199;-87
2021/06/02 09:20:34;;;;;;;3.58;1.52;;;18.00;61.90;;;;;;5019111;28;20189;-87
2021/06/02 09:23:00;;;;;;;3.42;1.90;;;18.20;62.60;;;;;;5019096;28;20183;-88
2021/06/02 09:25:27;;;;;;;4.47;1.95;;;18.50;60.10;;;;;;5019309;28;20663;-88
2021/06/02 09:27:56;;;;;;;3.45;2.10;;;18.60;61.20;;;;;;5018884;28;20192;-88
2021/06/02 09:30:27;;;;;;;4.22;2.15;;;18.40;62.60;;;;;;5036907;28;20177;-87
2021/06/02 09:32:58;;;;;;;2.83;1.73;;;18.20;61.40;;;;;;5036637;28;20251;-88
2021/06/02 09:35:41;;;;;;;5.40;1.77;;;18.20;58.70;;;;;;5018791;28;20249;-88
2021/06/02 09:38:28;;;;;;;3.72;1.77;;;18.10;59.20;;;;;;5018816;28;20196;-88
2021/06/02 09:40:55;;;;;;;2.70;2.00;;;17.70;59.60;;;;;;5018327;28;20204;-89
2021/06/02 09:43:31;;;;;;;8.02;2.22;;;17.70;61.80;;;;;;5018671;28;20173;-89
2021/06/02 09:46:09;;;;;;;6.30;2.00;;;17.80;60.30;;;;;;5018615;28;20705;-89
2021/06/02 09:49:01;;;;;;;4.53;2.10;;;18.40;59.60;;;;;;5018459;28;20287;-88
2021/06/02 09:51:38;;;;;;;3.95;2.22;;;18.30;59.60;;;;;;5018257;28;20184;-88
2021/06/02 09:54:08;;;;;;;4.80;2.13;;;18.60;59.40;;;;;;5018568;28;20172;-88
2021/06/02 09:56:38;;;;;;;4.70;2.42;;;18.30;59.70;;;;;;5018644;28;20161;-88
2021/06/02 09:59:06;;;;;;;2.72;2.30;;;18.20;59.80;;;;;;5018306;28;20197;-87
2021/06/02 10:01:59;;;;;;;2.83;2.30;;;18.30;61.40;;;;;;5018434;28;20176;-88
2021/06/02 10:04:35;;;;;;;4.60;2.28;;;18.60;58.20;;;;;;5018387;28;20169;-87
2021/06/02 10:07:03;;;;;;;6.28;2.80;;;18.90;59.70;;;;;;5036079;28;20525;-88
2021/06/02 10:09:32;;;;;;;5.55;2.28;;;19.20;57.30;;;;;;5035912;28;20193;-87
2021/06/02 10:12:18;;;;;;;7.32;2.47;;;18.70;59.60;;;;;;5035930;28;20175;-88
2021/06/02 10:14:58;;;;;;;7.10;2.17;;;18.70;60.10;;;;;;5018017;28;20710;-88
2021/06/02 10:17:24;;;;;;;3.40;2.38;;;18.60;59.50;;;;;;5018252;28;20548;-88
2021/06/02 10:19:49;;;;;;;5.35;2.97;;;19.00;60.30;;;;;;5018220;28;20213;-88
2021/06/02 10:22:19;;;;;;;5.00;2.38;;;18.70;60.30;;;;;;5018073;28;20187;-88
2021/06/02 10:24:46;;;;;;;6.68;2.22;;;19.10;61.50;;;;;;5035729;28;20303;-88
2021/06/02 10:27:12;;;;;;;3.60;2.55;;;19.20;60.70;;;;;;5017962;28;20637;-88
2021/06/02 10:29:38;;;;;;;5.78;2.38;;;19.50;61.30;;;;;;5035572;28;20211;-88
2021/06/02 10:32:05;;;;;;;4.70;2.50;;;18.80;58.90;;;;;;5035548;28;20177;-88
2021/06/02 10:34:31;;;;;;;5.93;2.47;;;18.50;60.80;;;;;;5035504;28;20183;-87
2021/06/02 10:36:57;;;;;;;5.25;2.45;;;18.60;61.40;;;;;;5017853;28;20264;-87
2021/06/02 10:39:25;;;;;;;4.30;2.35;;;18.70;61.40;;;;;;5035269;28;20570;-88
2021/06/02 10:41:54;;;;;;;4.60;3.25;;;19.00;60.30;;;;;;5035650;28;20212;-88
2021/06/02 10:44:30;;;;;;;5.65;2.28;;;19.20;58.80;;;;;;5018299;28;20220;-88
2021/06/02 10:46:58;;;;;;;2.80;2.30;;;19.40;58.20;;;;;;5035401;28;20585;-88
2021/06/02 10:49:28;;;;;;;7.97;2.80;;;19.40;58.80;;;;;;5035230;28;20192;-88
2021/06/02 10:51:56;;;;;;;4.93;3.30;;;19.50;56.80;;;;;;5017729;28;20221;-88
2021/06/02 10:54:35;;;;;;;3.70;2.42;;;19.70;58.00;;;;;;5017492;28;20215;-88
2021/06/02 10:57:00;;;;;;;3.92;2.35;;;20.10;58.50;;;;;;5017444;28;20604;-88
2021/06/02 10:59:37;;;;;;;6.07;2.45;;;19.70;59.30;;;;;;5034943;28;20239;-88
2021/06/02 11:02:13;;;;;;;7.45;3.03;;;19.70;58.70;;;;;;5017913;28;20199;-88
2021/06/02 11:04:55;;;;;;;6.70;2.75;;;19.90;59.60;;;;;;5017351;28;20168;-88
2021/06/02 11:07:30;;;;;;;2.83;2.40;;;20.20;56.50;;;;;;5017498;28;20171;-88
2021/06/02 11:10:00;;;;;;;8.52;2.80;;;20.40;56.10;;;;;;5035141;28;20183;-88
2021/06/02 11:12:48;;;;;;;3.20;2.45;;;20.50;59.00;;;;;;5017096;28;20548;-88
2021/06/02 11:15:36;;;;;;;3.72;2.33;;;20.40;57.00;;;;;;5017063;28;20645;-88
2021/06/02 11:18:11;;;;;;;3.72;2.50;;;19.80;57.90;;;;;;5016862;28;20211;-88
2021/06/02 11:20:40;;;;;;;5.35;2.60;;;20.00;57.50;;;;;;5016972;28;20195;-88
2021/06/02 11:23:07;;;;;;;3.95;2.45;;;20.20;57.40;;;;;;5016876;28;20177;-88
2021/06/02 11:25:33;;;;;;;7.47;2.45;;;20.10;57.10;;;;;;5015839;28;20173;-88
2021/06/02 11:27:58;;;;;;;4.05;2.67;;;20.20;57.00;;;;;;5016796;28;20196;-88
2021/06/02 11:30:25;;;;;;;2.85;1.85;;;20.30;55.10;;;;;;5016731;28;20177;-88
2021/06/02 11:32:55;;;;;;;2.83;2.30;;;20.10;55.10;;;;;;5016728;28;20184;-88
2021/06/02 11:35:54;;;;;;;2.38;2.17;;;20.20;56.90;;;;;;5016988;28;20176;-88
2021/06/02 11:38:22;;;;;;;5.28;2.63;;;20.70;58.90;;;;;;5034293;28;20188;-88
2021/06/02 11:40:48;;;;;;;3.15;2.38;;;20.90;55.00;;;;;;5034173;28;20283;-88
2021/06/02 11:43:14;;;;;;;2.53;2.10;;;21.10;53.40;;;;;;5016554;28;20184;-88
2021/06/02 11:45:48;;;;;;;3.83;2.42;;;21.20;53.40;;;;;;5112021;27;20538;-90
2021/06/02 11:48:25;;;;;;;3.25;2.00;;;21.20;54.70;;;;;;5111136;28;20190;-90
2021/06/02 11:50:52;;;;;;;3.15;2.45;;;21.30;52.30;;;;;;5109876;28;20173;-90
2021/06/02 11:53:18;;;;;;;3.92;2.35;;;21.30;53.90;;;;;;5111520;28;20177;-90
2021/06/02 11:55:44;;;;;;;3.67;2.13;;;21.20;52.60;;;;;;5111052;28;20162;-89
2021/06/02 11:58:09;;;;;;;3.08;2.13;;;20.90;53.20;;;;;;5109896;28;20228;-90
2021/06/02 12:00:36;;;;;;;5.13;2.50;;;21.10;52.90;;;;;;5109909;28;20264;-90
2021/06/02 12:03:10;;;;;;;8.70;3.05;;;21.20;50.90;;;;;;5110992;28;20219;-90
2021/06/02 12:05:38;;;;;;;2.75;2.10;;;21.20;51.30;;;;;;5109646;28;20246;-90
2021/06/02 12:08:14;;;;;;;4.38;2.33;;;20.90;53.50;;;;;;5109661;28;20190;-90
2021/06/02 12:10:47;;;;;;;5.30;2.80;;;21.30;54.20;;;;;;5110816;28;20218;-90
2021/06/02 12:13:16;;;;;;;2.75;2.38;;;21.50;52.20;;;;;;5110794;28;20237;-90
2021/06/02 12:15:46;;;;;;;4.63;2.47;;;21.10;51.40;;;;;;5109435;28;20174;-90
2021/06/02 12:18:27;;;;;;;4.97;2.60;;;21.00;51.90;;;;;;5110617;28;20193;-90
2021/06/02 12:21:10;;;;;;;9.20;3.30;;;20.70;53.80;;;;;;5109398;28;20162;-90
2021/06/02 12:23:51;;;;;;;3.42;2.60;;;20.90;52.80;;;;;;5110795;28;20231;-90
2021/06/02 12:26:21;;;;;;;4.72;2.80;;;21.20;52.90;;;;;;5109341;28;20162;-90
2021/06/02 12:28:47;;;;;;;2.97;2.47;;;21.50;52.70;;;;;;5109358;28;20197;-89
2021/06/02 12:31:32;;;;;;;4.43;2.50;;;21.60;51.90;;;;;;5110459;28;20171;-90
2021/06/02 12:34:07;;;;;;;3.88;2.47;;;21.60;50.90;;;;;;5109176;28;20203;-89
2021/06/02 12:36:34;;;;;;;4.95;2.47;;;21.60;51.30;;;;;;5108890;28;20584;-90
2021/06/02 12:39:09;;;;;;;6.40;2.63;;;21.60;52.90;;;;;;5109022;28;20209;-90
2021/06/02 12:41:35;;;;;;;6.25;2.90;;;21.60;52.80;;;;;;5110264;28;20158;-89
2021/06/02 12:44:05;;;;;;;3.25;2.10;;;21.60;52.60;;;;;;5109022;28;20206;-90
2021/06/02 12:46:31;;;;;;;2.45;2.22;;;21.80;51.60;;;;;;5108905;28;20179;-90
2021/06/02 12:48:57;;;;;;;7.55;2.58;;;21.80;51.60;;;;;;5110371;28;20270;-90
2021/06/02 12:51:24;;;;;;;5.13;2.90;;;21.60;51.60;;;;;;5110058;28;20171;-90
2021/06/02 12:53:51;;;;;;;4.47;2.78;;;21.80;53.50;;;;;;5110023;28;20202;-90
2021/06/02 12:56:18;;;;;;;10.70;2.47;;;22.20;51.90;;;;;;5101291;28;20181;-90
2021/06/02 12:58:51;;;;;;;6.88;3.03;;;22.10;52.10;;;;;;5094991;28;20194;-90
2021/06/02 13:01:17;;;;;;;6.88;2.92;;;22.20;52.30;;;;;;5096302;28;20156;-90
2021/06/02 13:03:48;;;;;;;4.55;2.65;;;22.40;51.60;;;;;;5096199;28;20554;-90
2021/06/02 13:06:27;;;;;;;4.28;2.97;;;22.40;50.30;;;;;;5095007;28;20170;-90
2021/06/02 13:08:53;;;;;;;3.65;2.95;;;22.40;50.30;;;;;;5094812;28;20193;-90
2021/06/02 13:11:25;;;;;;;2.97;2.67;;;22.80;51.90;;;;;;5094864;28;20177;-90
2021/06/02 13:13:52;;;;;;;4.95;3.42;;;22.60;49.10;;;;;;5094864;28;20169;-90
2021/06/02 13:16:20;;;;;;;6.75;2.90;;;22.40;50.70;;;;;;5096111;28;20215;-90
2021/06/02 13:19:06;;;;;;;8.93;3.25;;;22.40;50.50;;;;;;5158878;22;20692;-83
2021/06/02 13:21:36;;;;;;;13.70;3.72;;;22.70;51.80;;;;;;5055893;28;20171;-85
2021/06/02 13:24:12;;;;;;;4.80;2.75;;;22.70;51.20;;;;;;5056234;28;20217;-85
2021/06/02 13:26:39;;;;;;;7.40;2.90;;;23.10;51.30;;;;;;5055603;28;20191;-84